sensor_id;sensor_type;location;lat;lon;timestamp;P1;durP1;ratioP1;P2;durP2;ratioP2
71888;SDS011;59762;49.998;14.858;2022-11-20T00:00:52;6.63;;;5.05;;
71888;SDS011;59762;49.998;14.858;2022-11-20T00:03:18;13.98;;;5.03;;
71888;SDS011;59762;49.998;14.858;2022-11-20T00:05:44;14.52;;;4.82;;
71888;SDS011;59762;49.998;14.858;2022-11-20T00:08:10;12.32;;;7.72;;
71888;SDS011;59762;49.998;14.858;2022-11-20T00:10:36;5.10;;;4.57;;
71888;SDS011;59762;49.998;14.858;2022-11-20T00:13:03;9.02;;;4.10;;
71888;SDS011;59762;49.998;14.858;2022-11-20T00:15:28;5.90;;;4.28;;
71888;SDS011;59762;49.998;14.858;2022-11-20T00:17:54;11.10;;;6.25;;
71888;SDS011;59762;49.998;14.858;2022-11-20T00:20:20;3.80;;;2.65;;
71888;SDS011;59762;49.998;14.858;2022-11-20T00:22:46;8.43;;;5.15;;
71888;SDS011;59762;49.998;14.858;2022-11-20T00:25:12;4.35;;;4.05;;
71888;SDS011;59762;49.998;14.858;2022-11-20T00:27:38;27.30;;;6.15;;
71888;SDS011;59762;49.998;14.858;2022-11-20T00:30:04;9.55;;;5.53;;
71888;SDS011;59762;49.998;14.858;2022-11-20T00:32:30;24.67;;;7.93;;
71888;SDS011;59762;49.998;14.858;2022-11-20T00:34:56;7.72;;;4.68;;
71888;SDS011;59762;49.998;14.858;2022-11-20T00:37:22;17.05;;;6.18;;
71888;SDS011;59762;49.998;14.858;2022-11-20T00:39:47;6.95;;;4.35;;
71888;SDS011;59762;49.998;14.858;2022-11-20T00:42:13;11.15;;;5.57;;
71888;SDS011;59762;49.998;14.858;2022-11-20T00:44:38;9.85;;;6.32;;
71888;SDS011;59762;49.998;14.858;2022-11-20T00:47:04;8.18;;;5.20;;
71888;SDS011;59762;49.998;14.858;2022-11-20T00:49:30;15.45;;;4.68;;
71888;SDS011;59762;49.998;14.858;2022-11-20T00:51:56;7.40;;;4.53;;
71888;SDS011;59762;49.998;14.858;2022-11-20T00:54:21;18.42;;;5.47;;
71888;SDS011;59762;49.998;14.858;2022-11-20T00:56:47;6.68;;;5.82;;
71888;SDS011;59762;49.998;14.858;2022-11-20T00:59:13;10.25;;;3.90;;
71888;SDS011;59762;49.998;14.858;2022-11-20T01:01:38;9.20;;;4.20;;
71888;SDS011;59762;49.998;14.858;2022-11-20T01:04:04;12.68;;;4.85;;
71888;SDS011;59762;49.998;14.858;2022-11-20T01:06:31;6.78;;;3.83;;
71888;SDS011;59762;49.998;14.858;2022-11-20T01:09:00;7.53;;;4.85;;
71888;SDS011;59762;49.998;14.858;2022-11-20T01:11:28;4.90;;;4.43;;
71888;SDS011;59762;49.998;14.858;2022-11-20T01:13:56;9.13;;;5.07;;
71888;SDS011;59762;49.998;14.858;2022-11-20T01:16:24;12.70;;;6.43;;
71888;SDS011;59762;49.998;14.858;2022-11-20T01:18:52;8.77;;;5.18;;
71888;SDS011;59762;49.998;14.858;2022-11-20T01:21:21;16.95;;;6.30;;
71888;SDS011;59762;49.998;14.858;2022-11-20T01:23:49;6.45;;;4.38;;
71888;SDS011;59762;49.998;14.858;2022-11-20T01:26:18;13.70;;;6.03;;
71888;SDS011;59762;49.998;14.858;2022-11-20T01:28:46;31.02;;;8.75;;
71888;SDS011;59762;49.998;14.858;2022-11-20T01:31:14;14.15;;;10.77;;
71888;SDS011;59762;49.998;14.858;2022-11-20T01:34:01;11.88;;;6.32;;
71888;SDS011;59762;49.998;14.858;2022-11-20T01:36:32;6.38;;;3.13;;
71888;SDS011;59762;49.998;14.858;2022-11-20T01:39:00;5.00;;;4.38;;
71888;SDS011;59762;49.998;14.858;2022-11-20T01:41:29;4.88;;;3.65;;
71888;SDS011;59762;49.998;14.858;2022-11-20T01:44:15;8.35;;;5.07;;
71888;SDS011;59762;49.998;14.858;2022-11-20T01:46:52;7.10;;;4.90;;
71888;SDS011;59762;49.998;14.858;2022-11-20T01:49:24;8.93;;;5.00;;
71888;SDS011;59762;49.998;14.858;2022-11-20T01:51:56;8.07;;;3.72;;
71888;SDS011;59762;49.998;14.858;2022-11-20T01:54:30;4.75;;;4.28;;
71888;SDS011;59762;49.998;14.858;2022-11-20T01:57:03;14.38;;;3.65;;
71888;SDS011;59762;49.998;14.858;2022-11-20T01:59:31;6.75;;;4.57;;
71888;SDS011;59762;49.998;14.858;2022-11-20T02:01:58;7.35;;;4.50;;
71888;SDS011;59762;49.998;14.858;2022-11-20T02:04:24;13.85;;;8.20;;
71888;SDS011;59762;49.998;14.858;2022-11-20T02:06:58;18.13;;;5.60;;
71888;SDS011;59762;49.998;14.858;2022-11-20T02:09:25;3.40;;;3.10;;
71888;SDS011;59762;49.998;14.858;2022-11-20T02:11:53;6.88;;;2.65;;
71888;SDS011;59762;49.998;14.858;2022-11-20T02:14:19;6.53;;;4.10;;
71888;SDS011;59762;49.998;14.858;2022-11-20T02:16:46;9.43;;;3.65;;
71888;SDS011;59762;49.998;14.858;2022-11-20T02:22:12;15.93;;;8.25;;
71888;SDS011;59762;49.998;14.858;2022-11-20T02:24:39;3.80;;;3.08;;
71888;SDS011;59762;49.998;14.858;2022-11-20T02:27:10;34.60;;;11.65;;
71888;SDS011;59762;49.998;14.858;2022-11-20T02:29:53;19.20;;;11.13;;
71888;SDS011;59762;49.998;14.858;2022-11-20T02:32:27;7.35;;;4.45;;
71888;SDS011;59762;49.998;14.858;2022-11-20T02:34:57;4.65;;;3.70;;
71888;SDS011;59762;49.998;14.858;2022-11-20T02:37:25;11.40;;;5.05;;
71888;SDS011;59762;49.998;14.858;2022-11-20T02:39:55;8.05;;;2.55;;
71888;SDS011;59762;49.998;14.858;2022-11-20T02:42:21;5.93;;;2.90;;
71888;SDS011;59762;49.998;14.858;2022-11-20T02:44:47;4.35;;;3.92;;
71888;SDS011;59762;49.998;14.858;2022-11-20T02:47:12;8.02;;;3.08;;
71888;SDS011;59762;49.998;14.858;2022-11-20T02:49:38;6.10;;;4.68;;
71888;SDS011;59762;49.998;14.858;2022-11-20T02:52:03;18.10;;;4.07;;
71888;SDS011;59762;49.998;14.858;2022-11-20T02:54:29;9.65;;;5.15;;
71888;SDS011;59762;49.998;14.858;2022-11-20T02:56:55;4.35;;;3.30;;
71888;SDS011;59762;49.998;14.858;2022-11-20T02:59:20;8.65;;;4.85;;
71888;SDS011;59762;49.998;14.858;2022-11-20T03:01:46;5.03;;;3.15;;
71888;SDS011;59762;49.998;14.858;2022-11-20T03:04:11;6.18;;;4.82;;
71888;SDS011;59762;49.998;14.858;2022-11-20T03:06:37;10.80;;;7.00;;
71888;SDS011;59762;49.998;14.858;2022-11-20T03:09:03;10.98;;;5.85;;
71888;SDS011;59762;49.998;14.858;2022-11-20T03:11:28;11.90;;;3.88;;
71888;SDS011;59762;49.998;14.858;2022-11-20T03:13:54;9.48;;;2.95;;
71888;SDS011;59762;49.998;14.858;2022-11-20T03:16:20;10.50;;;4.95;;
71888;SDS011;59762;49.998;14.858;2022-11-20T03:18:47;4.93;;;1.77;;
71888;SDS011;59762;49.998;14.858;2022-11-20T03:21:14;5.57;;;3.67;;
71888;SDS011;59762;49.998;14.858;2022-11-20T03:23:40;4.45;;;3.10;;
71888;SDS011;59762;49.998;14.858;2022-11-20T03:26:22;5.72;;;3.38;;
71888;SDS011;59762;49.998;14.858;2022-11-20T03:28:50;2.30;;;2.20;;
71888;SDS011;59762;49.998;14.858;2022-11-20T03:31:19;13.70;;;4.43;;
71888;SDS011;59762;49.998;14.858;2022-11-20T03:33:46;6.30;;;3.70;;
71888;SDS011;59762;49.998;14.858;2022-11-20T03:36:12;10.43;;;3.25;;
71888;SDS011;59762;49.998;14.858;2022-11-20T03:38:39;3.10;;;2.50;;
71888;SDS011;59762;49.998;14.858;2022-11-20T03:41:17;3.20;;;2.90;;
71888;SDS011;59762;49.998;14.858;2022-11-20T03:43:48;5.45;;;3.40;;
71888;SDS011;59762;49.998;14.858;2022-11-20T03:46:15;10.35;;;4.82;;
71888;SDS011;59762;49.998;14.858;2022-11-20T03:48:40;8.45;;;3.65;;
71888;SDS011;59762;49.998;14.858;2022-11-20T03:51:28;6.28;;;4.55;;
71888;SDS011;59762;49.998;14.858;2022-11-20T03:53:54;7.55;;;4.55;;
71888;SDS011;59762;49.998;14.858;2022-11-20T03:56:28;4.32;;;3.92;;
71888;SDS011;59762;49.998;14.858;2022-11-20T03:58:55;6.78;;;5.78;;
71888;SDS011;59762;49.998;14.858;2022-11-20T04:01:22;10.27;;;4.78;;
71888;SDS011;59762;49.998;14.858;2022-11-20T04:03:50;4.95;;;3.67;;
71888;SDS011;59762;49.998;14.858;2022-11-20T04:06:19;8.82;;;4.97;;
71888;SDS011;59762;49.998;14.858;2022-11-20T04:08:48;10.20;;;5.88;;
71888;SDS011;59762;49.998;14.858;2022-11-20T04:11:16;17.63;;;7.57;;
71888;SDS011;59762;49.998;14.858;2022-11-20T04:13:48;9.27;;;5.70;;
71888;SDS011;59762;49.998;14.858;2022-11-20T04:16:17;4.38;;;3.70;;
71888;SDS011;59762;49.998;14.858;2022-11-20T04:18:43;9.27;;;3.67;;
71888;SDS011;59762;49.998;14.858;2022-11-20T04:21:09;9.80;;;6.97;;
71888;SDS011;59762;49.998;14.858;2022-11-20T04:23:35;15.70;;;8.00;;
71888;SDS011;59762;49.998;14.858;2022-11-20T04:26:02;16.13;;;6.28;;
71888;SDS011;59762;49.998;14.858;2022-11-20T04:28:30;10.57;;;6.40;;
71888;SDS011;59762;49.998;14.858;2022-11-20T04:31:01;11.43;;;5.78;;
71888;SDS011;59762;49.998;14.858;2022-11-20T04:33:28;14.65;;;6.38;;
71888;SDS011;59762;49.998;14.858;2022-11-20T04:35:53;12.63;;;6.90;;
71888;SDS011;59762;49.998;14.858;2022-11-20T04:38:19;10.98;;;4.95;;
71888;SDS011;59762;49.998;14.858;2022-11-20T04:40:44;10.55;;;5.13;;
71888;SDS011;59762;49.998;14.858;2022-11-20T04:43:10;18.45;;;7.65;;
71888;SDS011;59762;49.998;14.858;2022-11-20T04:45:36;7.63;;;6.57;;
71888;SDS011;59762;49.998;14.858;2022-11-20T04:48:01;12.05;;;6.05;;
71888;SDS011;59762;49.998;14.858;2022-11-20T04:50:27;17.02;;;9.15;;
71888;SDS011;59762;49.998;14.858;2022-11-20T04:52:52;12.75;;;8.25;;
71888;SDS011;59762;49.998;14.858;2022-11-20T04:55:18;19.35;;;7.78;;
71888;SDS011;59762;49.998;14.858;2022-11-20T04:57:43;13.93;;;8.05;;
71888;SDS011;59762;49.998;14.858;2022-11-20T05:00:09;9.95;;;5.63;;
71888;SDS011;59762;49.998;14.858;2022-11-20T05:02:35;41.92;;;26.95;;
71888;SDS011;59762;49.998;14.858;2022-11-20T05:05:01;25.88;;;13.20;;
71888;SDS011;59762;49.998;14.858;2022-11-20T05:07:26;12.63;;;8.45;;
71888;SDS011;59762;49.998;14.858;2022-11-20T05:09:52;10.27;;;7.65;;
71888;SDS011;59762;49.998;14.858;2022-11-20T05:12:17;17.13;;;7.13;;
71888;SDS011;59762;49.998;14.858;2022-11-20T05:14:43;12.48;;;9.93;;
71888;SDS011;59762;49.998;14.858;2022-11-20T05:17:11;15.38;;;6.70;;
71888;SDS011;59762;49.998;14.858;2022-11-20T05:19:37;14.45;;;7.97;;
71888;SDS011;59762;49.998;14.858;2022-11-20T05:22:04;37.80;;;10.68;;
71888;SDS011;59762;49.998;14.858;2022-11-20T05:24:29;9.15;;;6.32;;
71888;SDS011;59762;49.998;14.858;2022-11-20T05:26:55;18.90;;;8.82;;
71888;SDS011;59762;49.998;14.858;2022-11-20T05:29:20;15.63;;;6.50;;
71888;SDS011;59762;49.998;14.858;2022-11-20T05:31:46;12.95;;;7.40;;
71888;SDS011;59762;49.998;14.858;2022-11-20T05:34:12;6.82;;;5.80;;
71888;SDS011;59762;49.998;14.858;2022-11-20T05:36:37;8.88;;;6.38;;
71888;SDS011;59762;49.998;14.858;2022-11-20T05:39:03;11.30;;;7.07;;
71888;SDS011;59762;49.998;14.858;2022-11-20T05:41:28;53.83;;;24.77;;
71888;SDS011;59762;49.998;14.858;2022-11-20T05:43:55;26.40;;;11.02;;
71888;SDS011;59762;49.998;14.858;2022-11-20T05:46:21;20.92;;;10.88;;
71888;SDS011;59762;49.998;14.858;2022-11-20T05:48:47;22.60;;;14.98;;
71888;SDS011;59762;49.998;14.858;2022-11-20T05:51:14;17.52;;;10.88;;
71888;SDS011;59762;49.998;14.858;2022-11-20T05:53:42;24.90;;;9.35;;
71888;SDS011;59762;49.998;14.858;2022-11-20T05:56:12;27.83;;;8.68;;
71888;SDS011;59762;49.998;14.858;2022-11-20T05:58:40;14.85;;;7.50;;
71888;SDS011;59762;49.998;14.858;2022-11-20T06:01:06;18.30;;;7.72;;
71888;SDS011;59762;49.998;14.858;2022-11-20T06:03:34;14.30;;;8.65;;
71888;SDS011;59762;49.998;14.858;2022-11-20T06:06:00;14.63;;;7.85;;
71888;SDS011;59762;49.998;14.858;2022-11-20T06:08:26;13.18;;;8.75;;
71888;SDS011;59762;49.998;14.858;2022-11-20T06:10:52;31.75;;;7.75;;
71888;SDS011;59762;49.998;14.858;2022-11-20T06:13:18;16.92;;;10.68;;
71888;SDS011;59762;49.998;14.858;2022-11-20T06:15:53;16.17;;;7.40;;
71888;SDS011;59762;49.998;14.858;2022-11-20T06:18:19;14.48;;;7.03;;
71888;SDS011;59762;49.998;14.858;2022-11-20T06:20:45;8.32;;;5.03;;
71888;SDS011;59762;49.998;14.858;2022-11-20T06:23:11;8.70;;;4.75;;
71888;SDS011;59762;49.998;14.858;2022-11-20T06:25:38;8.23;;;5.03;;
71888;SDS011;59762;49.998;14.858;2022-11-20T06:28:05;4.72;;;3.42;;
71888;SDS011;59762;49.998;14.858;2022-11-20T06:30:30;12.43;;;6.82;;
71888;SDS011;59762;49.998;14.858;2022-11-20T06:32:56;15.98;;;6.18;;
71888;SDS011;59762;49.998;14.858;2022-11-20T06:35:21;15.32;;;8.40;;
71888;SDS011;59762;49.998;14.858;2022-11-20T06:37:47;35.90;;;10.80;;
71888;SDS011;59762;49.998;14.858;2022-11-20T06:40:12;18.90;;;9.23;;
71888;SDS011;59762;49.998;14.858;2022-11-20T06:42:38;19.38;;;9.05;;
71888;SDS011;59762;49.998;14.858;2022-11-20T06:45:04;19.90;;;10.52;;
71888;SDS011;59762;49.998;14.858;2022-11-20T06:47:30;10.10;;;6.65;;
71888;SDS011;59762;49.998;14.858;2022-11-20T06:49:55;18.63;;;9.52;;
71888;SDS011;59762;49.998;14.858;2022-11-20T06:52:21;21.95;;;8.40;;
71888;SDS011;59762;49.998;14.858;2022-11-20T06:54:46;11.90;;;7.90;;
71888;SDS011;59762;49.998;14.858;2022-11-20T06:57:12;9.25;;;6.80;;
71888;SDS011;59762;49.998;14.858;2022-11-20T06:59:37;4.38;;;3.50;;
71888;SDS011;59762;49.998;14.858;2022-11-20T07:02:03;11.60;;;6.93;;
71888;SDS011;59762;49.998;14.858;2022-11-20T07:04:29;32.33;;;14.40;;
71888;SDS011;59762;49.998;14.858;2022-11-20T07:06:54;30.83;;;12.25;;
71888;SDS011;59762;49.998;14.858;2022-11-20T07:09:20;22.05;;;9.73;;
71888;SDS011;59762;49.998;14.858;2022-11-20T07:11:46;36.80;;;10.15;;
71888;SDS011;59762;49.998;14.858;2022-11-20T07:14:11;17.05;;;6.15;;
71888;SDS011;59762;49.998;14.858;2022-11-20T07:16:37;12.20;;;8.13;;
71888;SDS011;59762;49.998;14.858;2022-11-20T07:19:02;15.57;;;7.25;;
71888;SDS011;59762;49.998;14.858;2022-11-20T07:21:28;11.02;;;7.05;;
71888;SDS011;59762;49.998;14.858;2022-11-20T07:23:53;30.58;;;11.23;;
71888;SDS011;59762;49.998;14.858;2022-11-20T07:26:19;13.10;;;7.47;;
71888;SDS011;59762;49.998;14.858;2022-11-20T07:28:45;15.35;;;6.57;;
71888;SDS011;59762;49.998;14.858;2022-11-20T07:31:10;15.25;;;7.90;;
71888;SDS011;59762;49.998;14.858;2022-11-20T07:33:38;11.30;;;6.82;;
71888;SDS011;59762;49.998;14.858;2022-11-20T07:36:04;16.65;;;4.90;;
71888;SDS011;59762;49.998;14.858;2022-11-20T07:38:29;21.17;;;5.82;;
71888;SDS011;59762;49.998;14.858;2022-11-20T07:40:56;21.80;;;6.65;;
71888;SDS011;59762;49.998;14.858;2022-11-20T07:43:22;19.20;;;7.68;;
71888;SDS011;59762;49.998;14.858;2022-11-20T07:45:49;9.57;;;6.53;;
71888;SDS011;59762;49.998;14.858;2022-11-20T07:48:15;12.02;;;6.03;;
71888;SDS011;59762;49.998;14.858;2022-11-20T07:50:40;16.85;;;3.63;;
71888;SDS011;59762;49.998;14.858;2022-11-20T07:53:06;9.30;;;4.78;;
71888;SDS011;59762;49.998;14.858;2022-11-20T07:55:32;6.78;;;5.20;;
71888;SDS011;59762;49.998;14.858;2022-11-20T07:57:58;10.45;;;4.47;;
71888;SDS011;59762;49.998;14.858;2022-11-20T08:00:24;9.93;;;6.43;;
71888;SDS011;59762;49.998;14.858;2022-11-20T08:02:51;8.43;;;4.63;;
71888;SDS011;59762;49.998;14.858;2022-11-20T08:05:17;10.68;;;6.70;;
71888;SDS011;59762;49.998;14.858;2022-11-20T08:07:43;8.15;;;5.78;;
71888;SDS011;59762;49.998;14.858;2022-11-20T08:10:10;7.55;;;5.25;;
71888;SDS011;59762;49.998;14.858;2022-11-20T08:12:47;8.63;;;4.07;;
71888;SDS011;59762;49.998;14.858;2022-11-20T08:15:33;7.32;;;3.65;;
71888;SDS011;59762;49.998;14.858;2022-11-20T08:18:03;16.77;;;6.82;;
71888;SDS011;59762;49.998;14.858;2022-11-20T08:20:30;13.27;;;5.10;;
71888;SDS011;59762;49.998;14.858;2022-11-20T08:22:57;9.88;;;4.32;;
71888;SDS011;59762;49.998;14.858;2022-11-20T08:25:25;5.13;;;4.57;;
71888;SDS011;59762;49.998;14.858;2022-11-20T08:27:51;13.30;;;4.70;;
71888;SDS011;59762;49.998;14.858;2022-11-20T08:30:17;13.98;;;4.40;;
71888;SDS011;59762;49.998;14.858;2022-11-20T08:32:42;14.13;;;6.22;;
71888;SDS011;59762;49.998;14.858;2022-11-20T08:35:08;15.43;;;7.22;;
71888;SDS011;59762;49.998;14.858;2022-11-20T08:37:33;10.93;;;5.63;;
71888;SDS011;59762;49.998;14.858;2022-11-20T08:39:59;12.07;;;6.75;;
71888;SDS011;59762;49.998;14.858;2022-11-20T08:42:24;6.10;;;4.85;;
71888;SDS011;59762;49.998;14.858;2022-11-20T08:44:50;13.13;;;4.55;;
71888;SDS011;59762;49.998;14.858;2022-11-20T08:47:15;8.98;;;5.82;;
71888;SDS011;59762;49.998;14.858;2022-11-20T08:49:41;5.15;;;3.75;;
71888;SDS011;59762;49.998;14.858;2022-11-20T08:52:07;11.52;;;5.47;;
71888;SDS011;59762;49.998;14.858;2022-11-20T08:54:32;10.90;;;3.53;;
71888;SDS011;59762;49.998;14.858;2022-11-20T08:56:58;10.32;;;5.32;;
71888;SDS011;59762;49.998;14.858;2022-11-20T08:59:23;18.63;;;7.50;;
71888;SDS011;59762;49.998;14.858;2022-11-20T09:01:49;9.45;;;5.22;;
71888;SDS011;59762;49.998;14.858;2022-11-20T09:04:15;14.52;;;7.70;;
71888;SDS011;59762;49.998;14.858;2022-11-20T09:06:41;4.43;;;4.00;;
71888;SDS011;59762;49.998;14.858;2022-11-20T09:09:06;14.45;;;5.78;;
71888;SDS011;59762;49.998;14.858;2022-11-20T09:11:32;8.32;;;4.18;;
71888;SDS011;59762;49.998;14.858;2022-11-20T09:13:58;7.60;;;5.38;;
71888;SDS011;59762;49.998;14.858;2022-11-20T09:16:23;8.65;;;4.43;;
71888;SDS011;59762;49.998;14.858;2022-11-20T09:18:49;12.52;;;4.65;;
71888;SDS011;59762;49.998;14.858;2022-11-20T09:21:16;13.32;;;6.60;;
71888;SDS011;59762;49.998;14.858;2022-11-20T09:23:42;17.95;;;7.07;;
71888;SDS011;59762;49.998;14.858;2022-11-20T09:26:09;19.45;;;7.10;;
71888;SDS011;59762;49.998;14.858;2022-11-20T09:28:39;13.90;;;5.95;;
71888;SDS011;59762;49.998;14.858;2022-11-20T09:31:08;8.23;;;4.90;;
71888;SDS011;59762;49.998;14.858;2022-11-20T09:33:47;13.73;;;5.70;;
71888;SDS011;59762;49.998;14.858;2022-11-20T09:36:12;12.30;;;7.25;;
71888;SDS011;59762;49.998;14.858;2022-11-20T09:38:38;17.42;;;5.68;;
71888;SDS011;59762;49.998;14.858;2022-11-20T09:41:04;11.48;;;6.13;;
71888;SDS011;59762;49.998;14.858;2022-11-20T09:46:20;21.48;;;12.00;;
71888;SDS011;59762;49.998;14.858;2022-11-20T09:51:52;20.10;;;6.97;;
71888;SDS011;59762;49.998;14.858;2022-11-20T09:54:36;12.50;;;7.30;;
71888;SDS011;59762;49.998;14.858;2022-11-20T09:57:21;18.40;;;8.82;;
71888;SDS011;59762;49.998;14.858;2022-11-20T09:59:51;24.73;;;10.15;;
71888;SDS011;59762;49.998;14.858;2022-11-20T10:04:57;11.93;;;5.80;;
71888;SDS011;59762;49.998;14.858;2022-11-20T10:07:42;26.98;;;11.13;;
71888;SDS011;59762;49.998;14.858;2022-11-20T10:10:14;16.52;;;8.80;;
71888;SDS011;59762;49.998;14.858;2022-11-20T10:27:12;14.55;;;8.02;;
71888;SDS011;59762;49.998;14.858;2022-11-20T10:29:59;20.05;;;7.78;;
71888;SDS011;59762;49.998;14.858;2022-11-20T10:32:31;11.93;;;7.82;;
71888;SDS011;59762;49.998;14.858;2022-11-20T10:38:12;14.55;;;7.07;;
71888;SDS011;59762;49.998;14.858;2022-11-20T10:40:44;37.35;;;12.82;;
71888;SDS011;59762;49.998;14.858;2022-11-20T10:43:26;33.40;;;10.80;;
71888;SDS011;59762;49.998;14.858;2022-11-20T10:46:05;27.88;;;14.45;;
71888;SDS011;59762;49.998;14.858;2022-11-20T10:48:35;31.60;;;11.85;;
71888;SDS011;59762;49.998;14.858;2022-11-20T10:53:55;39.83;;;13.07;;
71888;SDS011;59762;49.998;14.858;2022-11-20T10:56:33;44.83;;;15.82;;
71888;SDS011;59762;49.998;14.858;2022-11-20T11:01:45;23.15;;;10.75;;
71888;SDS011;59762;49.998;14.858;2022-11-20T11:07:00;31.23;;;13.73;;
71888;SDS011;59762;49.998;14.858;2022-11-20T11:09:52;32.40;;;14.73;;
71888;SDS011;59762;49.998;14.858;2022-11-20T11:12:21;40.63;;;12.50;;
71888;SDS011;59762;49.998;14.858;2022-11-20T11:14:50;31.45;;;17.48;;
71888;SDS011;59762;49.998;14.858;2022-11-20T11:17:21;19.92;;;9.07;;
71888;SDS011;59762;49.998;14.858;2022-11-20T11:22:42;29.58;;;8.45;;
71888;SDS011;59762;49.998;14.858;2022-11-20T11:25:29;30.05;;;8.98;;
71888;SDS011;59762;49.998;14.858;2022-11-20T11:28:02;23.55;;;7.50;;
71888;SDS011;59762;49.998;14.858;2022-11-20T11:30:40;26.80;;;13.15;;
71888;SDS011;59762;49.998;14.858;2022-11-20T11:33:26;20.08;;;11.18;;
71888;SDS011;59762;49.998;14.858;2022-11-20T11:35:58;18.75;;;9.85;;
71888;SDS011;59762;49.998;14.858;2022-11-20T11:38:39;16.60;;;8.43;;
71888;SDS011;59762;49.998;14.858;2022-11-20T11:41:28;22.95;;;11.00;;
71888;SDS011;59762;49.998;14.858;2022-11-20T11:44:00;26.52;;;11.80;;
71888;SDS011;59762;49.998;14.858;2022-11-20T11:46:58;21.77;;;10.98;;
71888;SDS011;59762;49.998;14.858;2022-11-20T11:49:24;18.83;;;11.30;;
71888;SDS011;59762;49.998;14.858;2022-11-20T11:51:58;22.63;;;11.30;;
71888;SDS011;59762;49.998;14.858;2022-11-20T11:54:33;26.52;;;12.02;;
71888;SDS011;59762;49.998;14.858;2022-11-20T11:57:03;23.50;;;13.18;;
71888;SDS011;59762;49.998;14.858;2022-11-20T11:59:44;29.80;;;15.75;;
71888;SDS011;59762;49.998;14.858;2022-11-20T12:02:31;13.00;;;7.85;;
71888;SDS011;59762;49.998;14.858;2022-11-20T12:07:48;21.63;;;10.10;;
71888;SDS011;59762;49.998;14.858;2022-11-20T12:10:21;23.02;;;13.52;;
71888;SDS011;59762;49.998;14.858;2022-11-20T12:12:52;17.65;;;10.07;;
71888;SDS011;59762;49.998;14.858;2022-11-20T12:15:28;19.80;;;11.07;;
71888;SDS011;59762;49.998;14.858;2022-11-20T12:17:55;19.05;;;10.38;;
71888;SDS011;59762;49.998;14.858;2022-11-20T12:20:22;16.00;;;6.97;;
71888;SDS011;59762;49.998;14.858;2022-11-20T12:29:17;25.20;;;9.50;;
71888;SDS011;59762;49.998;14.858;2022-11-20T12:32:14;17.23;;;9.15;;
71888;SDS011;59762;49.998;14.858;2022-11-20T12:48:51;12.93;;;6.03;;
71888;SDS011;59762;49.998;14.858;2022-11-20T12:51:37;10.95;;;4.47;;
71888;SDS011;59762;49.998;14.858;2022-11-20T13:02:03;24.50;;;8.98;;
71888;SDS011;59762;49.998;14.858;2022-11-20T13:04:59;20.15;;;9.93;;
71888;SDS011;59762;49.998;14.858;2022-11-20T13:07:30;15.10;;;9.10;;
71888;SDS011;59762;49.998;14.858;2022-11-20T13:09:57;19.52;;;10.48;;
71888;SDS011;59762;49.998;14.858;2022-11-20T13:12:33;41.75;;;14.57;;
71888;SDS011;59762;49.998;14.858;2022-11-20T13:15:13;25.20;;;11.05;;
71888;SDS011;59762;49.998;14.858;2022-11-20T13:17:54;16.25;;;9.40;;
71888;SDS011;59762;49.998;14.858;2022-11-20T13:20:24;14.77;;;9.95;;
71888;SDS011;59762;49.998;14.858;2022-11-20T13:22:51;17.90;;;7.88;;
71888;SDS011;59762;49.998;14.858;2022-11-20T13:25:27;25.15;;;9.75;;
71888;SDS011;59762;49.998;14.858;2022-11-20T13:27:55;29.20;;;10.85;;
71888;SDS011;59762;49.998;14.858;2022-11-20T13:30:26;17.17;;;9.45;;
71888;SDS011;59762;49.998;14.858;2022-11-20T13:33:09;25.23;;;11.25;;
71888;SDS011;59762;49.998;14.858;2022-11-20T13:35:58;16.15;;;9.15;;
71888;SDS011;59762;49.998;14.858;2022-11-20T13:38:39;16.38;;;7.55;;
71888;SDS011;59762;49.998;14.858;2022-11-20T13:41:07;18.73;;;9.10;;
71888;SDS011;59762;49.998;14.858;2022-11-20T13:43:52;26.33;;;13.50;;
71888;SDS011;59762;49.998;14.858;2022-11-20T13:46:17;39.22;;;18.83;;
71888;SDS011;59762;49.998;14.858;2022-11-20T13:48:50;14.93;;;6.65;;
71888;SDS011;59762;49.998;14.858;2022-11-20T13:56:32;42.30;;;19.73;;
71888;SDS011;59762;49.998;14.858;2022-11-20T13:59:16;23.95;;;13.20;;
71888;SDS011;59762;49.998;14.858;2022-11-20T14:02:01;28.35;;;11.70;;
71888;SDS011;59762;49.998;14.858;2022-11-20T14:04:28;33.30;;;13.57;;
71888;SDS011;59762;49.998;14.858;2022-11-20T14:06:57;17.30;;;10.55;;
71888;SDS011;59762;49.998;14.858;2022-11-20T14:09:25;29.33;;;12.65;;
71888;SDS011;59762;49.998;14.858;2022-11-20T14:11:55;29.42;;;13.23;;
71888;SDS011;59762;49.998;14.858;2022-11-20T14:14:22;25.48;;;9.68;;
71888;SDS011;59762;49.998;14.858;2022-11-20T14:16:49;23.63;;;10.40;;
71888;SDS011;59762;49.998;14.858;2022-11-20T14:21:44;24.00;;;12.85;;
71888;SDS011;59762;49.998;14.858;2022-11-20T14:24:10;21.60;;;11.73;;
71888;SDS011;59762;49.998;14.858;2022-11-20T14:26:43;25.02;;;10.55;;
71888;SDS011;59762;49.998;14.858;2022-11-20T14:29:14;29.95;;;12.38;;
71888;SDS011;59762;49.998;14.858;2022-11-20T14:31:42;30.90;;;12.48;;
71888;SDS011;59762;49.998;14.858;2022-11-20T14:34:15;29.20;;;14.10;;
71888;SDS011;59762;49.998;14.858;2022-11-20T14:36:44;23.95;;;10.43;;
71888;SDS011;59762;49.998;14.858;2022-11-20T14:39:11;28.95;;;12.32;;
71888;SDS011;59762;49.998;14.858;2022-11-20T14:41:37;22.48;;;11.93;;
71888;SDS011;59762;49.998;14.858;2022-11-20T14:44:03;26.92;;;11.20;;
71888;SDS011;59762;49.998;14.858;2022-11-20T14:46:30;22.02;;;11.13;;
71888;SDS011;59762;49.998;14.858;2022-11-20T14:48:57;19.30;;;12.85;;
71888;SDS011;59762;49.998;14.858;2022-11-20T14:51:31;18.40;;;11.82;;
71888;SDS011;59762;49.998;14.858;2022-11-20T14:54:11;19.80;;;10.90;;
71888;SDS011;59762;49.998;14.858;2022-11-20T14:56:39;20.90;;;9.35;;
71888;SDS011;59762;49.998;14.858;2022-11-20T14:59:05;18.58;;;10.98;;
71888;SDS011;59762;49.998;14.858;2022-11-20T15:01:31;22.30;;;10.35;;
71888;SDS011;59762;49.998;14.858;2022-11-20T15:04:09;12.73;;;8.50;;
71888;SDS011;59762;49.998;14.858;2022-11-20T15:06:36;19.55;;;9.90;;
71888;SDS011;59762;49.998;14.858;2022-11-20T15:09:12;28.65;;;14.43;;
71888;SDS011;59762;49.998;14.858;2022-11-20T15:11:39;21.65;;;10.75;;
71888;SDS011;59762;49.998;14.858;2022-11-20T15:14:26;23.52;;;9.65;;
71888;SDS011;59762;49.998;14.858;2022-11-20T15:16:53;31.55;;;16.45;;
71888;SDS011;59762;49.998;14.858;2022-11-20T15:19:23;23.55;;;12.23;;
71888;SDS011;59762;49.998;14.858;2022-11-20T15:21:50;18.13;;;9.43;;
71888;SDS011;59762;49.998;14.858;2022-11-20T15:24:16;25.27;;;11.25;;
71888;SDS011;59762;49.998;14.858;2022-11-20T15:26:41;23.00;;;10.82;;
71888;SDS011;59762;49.998;14.858;2022-11-20T15:29:08;34.25;;;10.63;;
71888;SDS011;59762;49.998;14.858;2022-11-20T15:31:36;15.07;;;9.57;;
71888;SDS011;59762;49.998;14.858;2022-11-20T15:34:04;20.48;;;11.43;;
71888;SDS011;59762;49.998;14.858;2022-11-20T15:36:32;17.60;;;8.65;;
71888;SDS011;59762;49.998;14.858;2022-11-20T15:38:57;36.78;;;10.07;;
71888;SDS011;59762;49.998;14.858;2022-11-20T15:41:23;15.38;;;8.35;;
71888;SDS011;59762;49.998;14.858;2022-11-20T15:43:48;63.10;;;17.70;;
71888;SDS011;59762;49.998;14.858;2022-11-20T15:46:15;24.27;;;11.63;;
71888;SDS011;59762;49.998;14.858;2022-11-20T15:48:46;11.77;;;8.32;;
71888;SDS011;59762;49.998;14.858;2022-11-20T15:51:25;22.85;;;12.00;;